Cebolla, New Mexico
Current Conditions -  °F | °C
As of 12:35 PM on Thursday 27 Nov 2014 (Local Time) from KSKX Reporting Station
Clear Clear  
Wind Chill: 50°   Ceiling: Unl
Heat Index: 50°   Visibility: 10mi
Dew Point: 21°   Wind: 5mph
Humidity: 32%   Direction: 350°N
Pressure: 30.42"   Gusts: NA
Location:  36.54°N, 106.49°W
Report Text: KSKX 271935Z AUTO 35004KT 10SM CLR 10/M06 A3042 RMK AO1
Loading
Personal Weather Stations






























Interactive Weather Map New forecast layout! Learn more

10-Day Weather Forecast

Advertisements
Track Severe Weather on mobile